Time;durP1;ratioP1;P1;durP2;ratioP2;P2;SDS_P1;SDS_P2;PMS_P1;PMS_P2;Temp;Humidity;BMP_temperature;BMP_pressure;BME280_temperature;BME280_humidity;BME280_pressure;Samples;Min_cycle;Max_cycle;Signal;HPM_P1;HPM_P2
2022/07/16 00:03:08;;;;;;;6.80;1.40;;;;;;;12.40;50.07;99346.58;106116;1274;25336;-81
2022/07/16 00:05:37;;;;;;;6.80;1.40;;;;;;;12.36;50.24;99344.89;106223;1273;22529;-83
2022/07/16 00:08:04;;;;;;;6.70;1.30;;;;;;;12.32;50.16;99341.77;106076;1274;22620;-84
2022/07/16 00:10:38;;;;;;;7.20;1.10;;;;;;;12.30;50.23;99347.88;106053;1274;23932;-84
2022/07/16 00:13:12;;;;;;;6.30;1.30;;;;;;;12.27;50.33;99348.63;106171;1274;22535;-85
2022/07/16 00:15:42;;;;;;;7.00;1.20;;;;;;;12.25;50.51;99347.14;106032;1274;22565;-85
2022/07/16 00:21:20;;;;;;;6.60;1.20;;;;;;;12.20;50.58;99345.71;106079;1274;24204;-84
2022/07/16 00:23:55;;;;;;;7.70;1.10;;;;;;;12.15;50.65;99343.38;106111;1273;22547;-86
2022/07/16 00:26:23;;;;;;;5.80;1.30;;;;;;;12.10;50.77;99340.89;106116;1273;25347;-82
2022/07/16 00:28:54;;;;;;;6.20;1.40;;;;;;;12.06;50.70;99339.64;106098;1274;24373;-85
2022/07/16 00:31:27;;;;;;;4.00;0.90;;;;;;;12.03;50.74;99339.88;106088;1274;22553;-84
2022/07/16 00:33:57;;;;;;;5.80;1.10;;;;;;;12.02;50.72;99340.48;106182;1273;22547;-84
2022/07/16 00:36:24;;;;;;;4.20;1.00;;;;;;;12.01;50.99;99333.72;106080;1273;23486;-84
2022/07/16 00:38:59;;;;;;;5.70;0.90;;;;;;;12.04;50.97;99330.52;105918;1274;22551;-83
2022/07/16 00:41:32;;;;;;;7.50;0.90;;;;;;;12.07;51.21;99326.66;106263;1274;23179;-83
2022/07/16 00:44:15;;;;;;;6.20;1.10;;;;;;;12.08;51.02;99325.02;106290;1274;25503;-84
2022/07/16 00:46:48;;;;;;;5.50;0.90;;;;;;;12.10;51.02;99327.33;106294;1274;22558;-82
2022/07/16 00:49:19;;;;;;;7.10;0.90;;;;;;;12.14;51.00;99326.15;106142;1273;25315;-82
2022/07/16 00:51:59;;;;;;;7.40;0.90;;;;;;;12.17;51.03;99320.39;106166;1273;22978;-83
2022/07/16 00:54:26;;;;;;;5.90;1.30;;;;;;;12.22;51.03;99316.30;106335;1274;24286;-84
2022/07/16 00:56:56;;;;;;;7.80;1.00;;;;;;;12.25;50.99;99314.65;106388;1274;22557;-83
2022/07/16 00:59:25;;;;;;;5.30;0.90;;;;;;;12.30;51.05;99318.54;106208;1273;24313;-84
2022/07/16 01:01:55;;;;;;;5.60;1.00;;;;;;;12.34;51.01;99312.74;106148;1273;25207;-83
2022/07/16 01:04:32;;;;;;;5.90;1.40;;;;;;;12.37;51.11;99312.88;106116;1274;25471;-83
2022/07/16 01:07:08;;;;;;;5.90;1.00;;;;;;;12.37;51.19;99307.52;106053;1274;24068;-83
2022/07/16 01:09:42;;;;;;;7.70;0.90;;;;;;;12.38;51.19;99307.42;106063;1274;22544;-85
2022/07/16 01:12:32;;;;;;;;;;;;;;;;;;;;;
2022/07/16 01:15:10;;;;;;;6.00;1.10;;;;;;;12.35;51.21;99304.27;106145;1274;23891;-81
2022/07/16 01:17:44;;;;;;;2.20;0.60;;;;;;;12.34;51.34;99302.56;105762;1274;22655;-83
2022/07/16 01:20:14;;;;;;;5.40;1.00;;;;;;;12.32;51.39;99301.48;106025;1274;22618;-85
2022/07/16 01:22:46;;;;;;;6.90;1.00;;;;;;;12.28;51.39;99301.72;106226;1273;24289;-84
2022/07/16 01:25:21;;;;;;;5.90;0.90;;;;;;;12.28;51.46;99299.27;106151;1274;24801;-85
2022/07/16 01:27:48;;;;;;;6.40;1.10;;;;;;;12.27;51.44;99296.65;106148;1273;25762;-84
2022/07/16 01:30:21;;;;;;;7.40;1.30;;;;;;;12.25;51.64;99291.95;106138;1274;22649;-85
2022/07/16 01:32:53;;;;;;;5.70;0.90;;;;;;;12.25;51.56;99290.19;106273;1272;26799;-81
2022/07/16 01:35:33;;;;;;;6.30;1.00;;;;;;;12.26;51.68;99289.60;106170;1274;24243;-83
2022/07/16 01:38:05;;;;;;;6.90;1.10;;;;;;;12.29;51.68;99289.33;106215;1273;24276;-83
2022/07/16 01:40:35;;;;;;;5.60;1.10;;;;;;;12.33;51.72;99280.50;105978;1274;22576;-83
2022/07/16 01:43:05;;;;;;;4.20;1.20;;;;;;;12.37;51.84;99283.59;106112;1273;25290;-90
2022/07/16 01:45:35;;;;;;;3.60;0.90;;;;;;;12.40;51.82;99279.58;106095;1274;22780;-83
2022/07/16 01:48:16;;;;;;;3.40;0.80;;;;;;;12.42;51.84;99282.64;106126;1274;24309;-83
2022/07/16 01:50:59;;;;;;;4.30;1.30;;;;;;;12.41;51.89;99281.52;106091;1273;25469;-83
2022/07/16 01:53:34;;;;;;;6.10;1.00;;;;;;;12.41;52.17;99279.71;106056;1274;22540;-86
2022/07/16 01:56:07;;;;;;;6.60;1.30;;;;;;;12.41;51.92;99277.91;106169;1273;24270;-85
2022/07/16 01:58:43;;;;;;;5.10;0.90;;;;;;;12.43;52.03;99277.94;106159;1273;22681;-83
2022/07/16 02:01:18;;;;;;;6.50;1.10;;;;;;;12.44;52.17;99280.56;106166;1274;22725;-83
2022/07/16 02:03:54;;;;;;;6.50;1.10;;;;;;;12.43;52.16;99277.91;106120;1274;23910;-85
2022/07/16 02:06:24;;;;;;;5.70;1.30;;;;;;;12.41;52.27;99275.92;106054;1274;22589;-83
2022/07/16 02:08:59;;;;;;;7.80;1.20;;;;;;;12.38;52.23;99273.50;106033;1274;24205;-87
2022/07/16 02:11:31;;;;;;;5.40;1.20;;;;;;;12.35;52.26;99269.10;106091;1274;22822;-86
2022/07/16 02:14:04;;;;;;;5.00;1.20;;;;;;;12.31;52.32;99268.64;106175;1273;22551;-84
2022/07/16 02:16:37;;;;;;;6.50;1.30;;;;;;;12.27;52.35;99264.52;106130;1274;24272;-87
2022/07/16 02:19:09;;;;;;;8.70;1.30;;;;;;;12.23;52.39;99263.44;106054;1274;22681;-84
2022/07/16 02:21:58;;;;;;;6.30;1.20;;;;;;;12.20;52.63;99260.59;106291;1273;22474;-84
2022/07/16 02:24:41;;;;;;;7.40;1.30;;;;;;;12.18;52.57;99259.52;106056;1274;24177;-83
2022/07/16 02:27:21;;;;;;;4.30;1.30;;;;;;;12.16;52.59;99257.83;106007;1272;25339;-84
2022/07/16 02:29:54;;;;;;;8.70;1.60;;;;;;;12.18;52.77;99264.30;106587;1273;24377;-84
2022/07/16 02:32:28;;;;;;;4.90;1.10;;;;;;;12.21;52.68;99261.95;106095;1273;22535;-85
2022/07/16 02:35:10;;;;;;;4.20;1.10;;;;;;;12.25;52.59;99258.08;106133;1273;23926;-83
2022/07/16 02:37:45;;;;;;;4.90;1.00;;;;;;;12.29;52.77;99261.35;106083;1273;24504;-83
2022/07/16 02:40:15;;;;;;;6.10;1.10;;;;;;;12.31;52.76;99259.56;106150;1274;22703;-83
2022/07/16 02:42:55;;;;;;;5.00;1.10;;;;;;;12.33;52.78;99257.82;106119;1274;23514;-83
2022/07/16 02:45:31;;;;;;;6.30;1.20;;;;;;;12.35;52.75;99256.09;106010;1273;25244;-83
2022/07/16 02:48:11;;;;;;;6.00;1.10;;;;;;;12.36;52.87;99257.05;106082;1273;25307;-83
2022/07/16 02:50:55;;;;;;;4.00;1.10;;;;;;;12.37;52.94;99254.66;105974;1274;22643;-83
2022/07/16 02:53:30;;;;;;;5.10;1.30;;;;;;;12.39;52.98;99254.11;106044;1274;25248;-84
2022/07/16 02:56:13;;;;;;;6.90;1.50;;;;;;;12.40;53.03;99250.64;106108;1273;25358;-84
2022/07/16 02:58:56;;;;;;;6.70;1.20;;;;;;;12.42;53.06;99251.02;106173;1273;25355;-84
2022/07/16 03:01:28;;;;;;;6.00;1.20;;;;;;;12.44;53.03;99255.14;106103;1274;24225;-83
2022/07/16 03:04:01;;;;;;;5.10;1.40;;;;;;;12.45;53.11;99253.66;106069;1274;24298;-83
2022/07/16 03:06:40;;;;;;;;;;;;;;;;;;;;;
2022/07/16 03:09:26;;;;;;;7.40;1.40;;;;;;;12.49;53.13;99249.46;106095;1274;22553;-88
2022/07/16 03:12:24;;;;;;;6.60;1.10;;;;;;;12.50;53.24;99248.48;106139;1274;22547;-82
2022/07/16 03:15:10;;;;;;;8.00;1.20;;;;;;;12.51;53.25;99248.78;105670;1276;25315;-83
2022/07/16 03:17:54;;;;;;;5.70;1.20;;;;;;;12.51;53.28;99244.30;106060;1276;22618;-84
2022/07/16 03:20:32;;;;;;;7.50;1.30;;;;;;;12.51;53.36;99246.46;106020;1276;24717;-84
2022/07/16 03:23:32;;;;;;;6.60;1.40;;;;;;;12.51;53.28;99242.89;106078;1274;25413;-83
2022/07/16 03:26:17;;;;;;;8.60;1.40;;;;;;;12.52;53.30;99245.85;106047;1274;25242;-82
2022/07/16 03:29:13;;;;;;;5.50;1.30;;;;;;;12.55;53.38;99242.20;106424;1274;22534;-85
2022/07/16 03:32:12;;;;;;;6.40;1.30;;;;;;;12.61;53.53;99245.11;105905;1276;24199;-84
2022/07/16 03:35:04;;;;;;;4.10;1.20;;;;;;;12.69;53.49;99245.21;106032;1274;24384;-84
2022/07/16 03:40:53;;;;;;;6.80;1.10;;;;;;;12.78;53.48;99248.63;106024;1275;25203;-82
2022/07/16 03:43:46;;;;;;;6.00;1.20;;;;;;;12.82;53.54;99246.33;105913;1276;24366;-83
2022/07/16 03:46:26;;;;;;;7.00;1.50;;;;;;;12.85;53.55;99253.98;106248;1275;25546;-83
2022/07/16 03:49:13;;;;;;;8.30;1.30;;;;;;;12.87;53.70;99253.09;105897;1276;22831;-84
2022/07/16 03:52:09;;;;;;;;;;;;;;;;;;;;;
2022/07/16 03:54:52;;;;;;;5.10;1.20;;;;;;;12.90;53.72;99249.84;106050;1276;25296;-83
2022/07/16 03:57:34;;;;;;;5.00;1.10;;;;;;;12.91;53.69;99247.62;106018;1276;22992;-82
2022/07/16 04:00:19;;;;;;;7.90;1.60;;;;;;;12.92;53.77;99250.05;105772;1276;22696;-83
2022/07/16 04:03:30;;;;;;;4.70;1.00;;;;;;;12.93;53.76;99243.50;105918;1274;24292;-84
2022/07/16 04:06:19;;;;;;;;;;;;;;;;;;;;;
2022/07/16 04:09:03;;;;;;;7.70;1.30;;;;;;;12.97;53.90;99247.82;106050;1274;24220;-87
2022/07/16 04:11:55;;;;;;;6.40;1.40;;;;;;;12.99;53.92;99243.19;105997;1276;22541;-84
2022/07/16 04:14:32;;;;;;;7.30;1.30;;;;;;;13.02;53.98;99241.39;106407;1273;22800;-84
2022/07/16 04:17:17;;;;;;;5.20;1.00;;;;;;;13.05;53.99;99238.98;106190;1273;22737;-87
2022/07/16 04:19:50;;;;;;;8.80;1.50;;;;;;;13.10;54.04;99231.96;106214;1274;23311;-84
2022/07/16 04:22:30;;;;;;;6.40;1.00;;;;;;;13.17;54.00;99230.55;106233;1273;24217;-84
2022/07/16 04:25:15;;;;;;;7.10;1.30;;;;;;;13.26;53.98;99228.91;106187;1273;25401;-82
2022/07/16 04:28:02;;;;;;;9.90;1.20;;;;;;;13.38;54.02;99229.18;106248;1273;23062;-84
2022/07/16 04:30:35;;;;;;;6.80;0.90;;;;;;;13.52;54.00;99226.79;106088;1275;22555;-84
2022/07/16 04:33:13;;;;;;;7.60;1.60;;;;;;;13.65;54.14;99225.92;106020;1273;24412;-87
2022/07/16 04:35:48;;;;;;;9.90;1.40;;;;;;;13.77;54.17;99222.97;106127;1273;25387;-84
2022/07/16 04:38:21;;;;;;;7.30;1.00;;;;;;;13.86;53.92;99224.71;106311;1274;23841;-82
2022/07/16 04:41:02;;;;;;;10.70;1.30;;;;;;;13.96;54.02;99225.36;106160;1274;23967;-83
2022/07/16 04:43:33;;;;;;;7.30;1.60;;;;;;;14.03;53.98;99224.02;106111;1274;24410;-86
2022/07/16 04:46:20;;;;;;;6.30;1.40;;;;;;;14.11;54.05;99226.97;106140;1274;23526;-83
2022/07/16 04:48:56;;;;;;;5.40;1.10;;;;;;;14.19;54.01;99228.23;106066;1274;24272;-83
2022/07/16 04:51:25;;;;;;;8.30;1.20;;;;;;;14.26;53.97;99231.92;106212;1274;22532;-85
2022/07/16 04:53:58;;;;;;;7.80;1.20;;;;;;;14.32;54.03;99231.59;106079;1274;23904;-83
2022/07/16 04:56:25;;;;;;;6.00;1.00;;;;;;;14.39;54.13;99228.01;106029;1276;25473;-84
2022/07/16 04:58:58;;;;;;;7.00;1.40;;;;;;;14.44;54.04;99220.73;106330;1274;22684;-86
2022/07/16 05:01:28;;;;;;;8.80;1.40;;;;;;;14.49;53.95;99220.92;106160;1273;22542;-84
2022/07/16 05:04:00;;;;;;;9.00;1.60;;;;;;;14.54;54.03;99216.47;106105;1274;25254;-82
2022/07/16 05:06:33;;;;;;;7.90;1.30;;;;;;;14.62;53.95;99213.99;106398;1274;22800;-85
2022/07/16 05:09:09;;;;;;;7.30;1.60;;;;;;;14.71;54.03;99212.13;106187;1273;25295;-84
2022/07/16 05:11:39;;;;;;;6.50;1.40;;;;;;;14.93;53.93;99208.96;106262;1273;22976;-83
2022/07/16 05:14:14;;;;;;;5.70;1.30;;;;;;;15.13;53.92;99205.73;106221;1273;25284;-87
2022/07/16 05:16:50;;;;;;;8.70;1.40;;;;;;;15.27;53.92;99201.16;106038;1274;22537;-84
2022/07/16 05:19:25;;;;;;;5.10;1.10;;;;;;;15.51;53.87;99202.60;106010;1274;25442;-82
2022/07/16 05:22:00;;;;;;;5.90;1.10;;;;;;;15.84;53.83;99202.41;106142;1274;22640;-84
2022/07/16 05:24:34;;;;;;;7.40;1.30;;;;;;;16.03;53.83;99199.80;106445;1273;22705;-85
2022/07/16 05:27:04;;;;;;;5.20;1.00;;;;;;;16.12;53.55;99197.16;106131;1274;23228;-84
2022/07/16 05:29:31;;;;;;;4.20;1.00;;;;;;;16.18;53.52;99197.33;106260;1274;24318;-83
2022/07/16 05:31:58;;;;;;;8.50;0.90;;;;;;;16.24;53.51;99194.39;106318;1274;25851;-83
2022/07/16 05:34:25;;;;;;;6.10;1.00;;;;;;;16.33;53.38;99190.36;106027;1275;22655;-84
2022/07/16 05:36:55;;;;;;;8.30;1.00;;;;;;;16.43;53.22;99192.47;106244;1273;22776;-85
2022/07/16 05:39:24;;;;;;;7.00;1.10;;;;;;;16.53;53.12;99189.20;106561;1274;22548;-83
2022/07/16 05:42:00;;;;;;;6.40;1.20;;;;;;;16.70;52.99;99190.45;106121;1274;23899;-85
2022/07/16 05:44:33;;;;;;;8.30;1.00;;;;;;;16.94;52.75;99191.07;106008;1274;24284;-87
2022/07/16 05:47:05;;;;;;;6.50;1.10;;;;;;;16.97;52.59;99191.98;106370;1274;22709;-84
2022/07/16 05:49:38;;;;;;;4.50;1.10;;;;;;;16.96;52.66;99189.72;106111;1274;22607;-84
2022/07/16 05:52:12;;;;;;;7.00;1.20;;;;;;;17.11;52.55;99187.10;106397;1274;22813;-83
2022/07/16 05:54:40;;;;;;;5.90;1.20;;;;;;;17.24;52.41;99184.69;105904;1274;24257;-85
2022/07/16 05:57:07;;;;;;;6.10;1.00;;;;;;;17.34;52.43;99185.14;106064;1274;25104;-84
2022/07/16 05:59:46;;;;;;;4.10;0.80;;;;;;;17.46;52.50;99182.92;106095;1274;23945;-83
2022/07/16 06:02:17;;;;;;;5.50;1.10;;;;;;;17.62;52.31;99180.91;106044;1276;25243;-84
2022/07/16 06:04:53;;;;;;;7.30;1.20;;;;;;;17.79;52.33;99183.42;106077;1274;22543;-84
2022/07/16 06:07:28;;;;;;;7.10;1.10;;;;;;;17.88;52.16;99185.19;106072;1274;23361;-84
2022/07/16 06:09:58;;;;;;;5.30;1.00;;;;;;;17.99;52.29;99182.46;106226;1274;25328;-85
2022/07/16 06:12:29;;;;;;;4.00;0.70;;;;;;;18.19;52.11;99183.21;106087;1274;23174;-85
2022/07/16 06:15:01;;;;;;;6.40;0.80;;;;;;;18.25;51.64;99184.91;106175;1274;26480;-83
2022/07/16 06:17:34;;;;;;;5.80;0.70;;;;;;;18.33;51.67;99179.55;106055;1274;22698;-87
2022/07/16 06:20:06;;;;;;;4.50;1.00;;;;;;;18.58;51.75;99172.30;106294;1274;24244;-84
2022/07/16 06:22:37;;;;;;;3.90;0.80;;;;;;;18.91;51.99;99170.51;106355;1273;24091;-90
2022/07/16 06:25:08;;;;;;;7.80;0.90;;;;;;;19.21;51.79;99165.20;105947;1274;25469;-82
2022/07/16 06:27:47;;;;;;;4.20;0.80;;;;;;;19.29;51.13;99165.19;106060;1275;22501;-88
2022/07/16 06:30:19;;;;;;;4.50;0.80;;;;;;;19.21;51.23;99165.19;106136;1274;22528;-88
2022/07/16 06:32:50;;;;;;;3.70;0.60;;;;;;;19.18;50.98;99168.09;106026;1274;22572;-85
2022/07/16 06:35:27;;;;;;;3.40;0.60;;;;;;;19.02;51.16;99166.05;106077;1274;25446;-84
2022/07/16 06:38:04;;;;;;;2.70;0.50;;;;;;;19.05;51.03;99161.40;106187;1274;24260;-86
2022/07/16 06:40:39;;;;;;;4.30;0.70;;;;;;;19.23;50.83;99163.14;106038;1274;25241;-84
2022/07/16 06:43:17;;;;;;;1.80;0.60;;;;;;;19.50;51.10;99162.02;106080;1274;22556;-88
2022/07/16 06:45:51;;;;;;;3.60;0.70;;;;;;;19.82;50.63;99158.30;106247;1274;24759;-84
2022/07/16 06:48:26;;;;;;;3.60;0.50;;;;;;;20.08;50.67;99156.45;106094;1274;22562;-85
2022/07/16 06:50:55;;;;;;;2.10;0.50;;;;;;;20.37;50.26;99148.61;106166;1274;22534;-86
2022/07/16 06:53:25;;;;;;;2.80;0.60;;;;;;;20.45;49.81;99149.71;106161;1276;22640;-86
2022/07/16 06:55:55;;;;;;;4.80;0.60;;;;;;;20.40;50.11;99148.23;106219;1273;22682;-85
2022/07/16 06:58:27;;;;;;;2.20;0.60;;;;;;;20.38;50.21;99146.45;106273;1274;22688;-84
2022/07/16 07:00:57;;;;;;;2.10;0.50;;;;;;;20.45;50.17;99145.38;106277;1274;24810;-87
2022/07/16 07:03:44;;;;;;;4.90;0.80;;;;;;;20.47;49.69;99144.19;106084;1274;22531;-85
2022/07/16 07:06:45;;;;;;;2.90;0.50;;;;;;;20.59;49.94;99140.92;106727;1274;22547;-85
2022/07/16 07:09:17;;;;;;;5.50;0.60;;;;;;;20.57;49.13;99139.67;106439;1274;22626;-85
2022/07/16 07:11:49;;;;;;;4.60;0.70;;;;;;;20.48;49.45;99137.42;106072;1277;22701;-85
2022/07/16 07:14:25;;;;;;;2.70;0.60;;;;;;;20.51;49.17;99136.23;106175;1274;25280;-85
2022/07/16 07:17:02;;;;;;;2.60;0.70;;;;;;;20.66;48.97;99133.95;106107;1274;22572;-83
2022/07/16 07:19:32;;;;;;;4.40;0.60;;;;;;;20.87;48.70;99131.39;106141;1273;24415;-85
2022/07/16 07:22:22;;;;;;;4.30;0.80;;;;;;;21.02;48.59;99129.47;106152;1274;22535;-86
2022/07/16 07:25:01;;;;;;;4.20;0.80;;;;;;;21.18;48.28;99128.22;106112;1274;22697;-89
2022/07/16 07:27:31;;;;;;;5.20;0.70;;;;;;;21.29;48.42;99126.72;106150;1274;25220;-84
2022/07/16 07:30:20;;;;;;;4.70;0.70;;;;;;;21.50;48.42;99125.44;106118;1275;22664;-84
2022/07/16 07:35:43;;;;;;;8.60;0.90;;;;;;;21.88;47.55;99124.71;106174;1274;24268;-86
2022/07/16 07:38:19;;;;;;;5.40;0.70;;;;;;;21.83;47.73;99127.67;106228;1274;26481;-84
2022/07/16 07:41:10;;;;;;;5.30;0.70;;;;;;;21.90;48.15;99122.32;106048;1274;25628;-83
2022/07/16 07:43:51;;;;;;;4.10;0.60;;;;;;;22.12;48.27;99126.58;106090;1274;22768;-85
2022/07/16 07:46:43;;;;;;;3.50;0.80;;;;;;;22.31;48.09;99118.92;106058;1276;22534;-84
2022/07/16 07:49:30;;;;;;;5.00;0.80;;;;;;;22.54;47.79;99111.33;106232;1274;24240;-85
2022/07/16 07:56:01;;;;;;;6.10;0.70;;;;;;;22.39;47.48;99114.44;106367;1274;22819;-83
2022/07/16 07:58:45;;;;;;;;;;;;;;;;;;;;;
2022/07/16 08:01:43;;;;;;;3.80;0.50;;;;;;;21.99;47.34;99119.88;106258;1274;25237;-84
2022/07/16 08:04:15;;;;;;;6.20;0.50;;;;;;;21.95;47.36;99113.54;106216;1274;22535;-87
2022/07/16 08:07:27;;;;;;;10.60;0.90;;;;;;;22.05;47.27;99109.45;106224;1274;24347;-85
2022/07/16 08:09:59;;;;;;;4.30;0.60;;;;;;;22.16;46.82;99106.95;106127;1274;24276;-83
2022/07/16 08:12:58;;;;;;;3.90;0.70;;;;;;;22.26;47.25;99111.14;106176;1273;22695;-86
2022/07/16 08:16:07;;;;;;;7.60;0.80;;;;;;;22.38;46.75;99104.84;106264;1275;24302;-85
2022/07/16 08:18:43;;;;;;;4.10;0.80;;;;;;;22.47;46.94;99100.51;106273;1271;25463;-84
2022/07/16 08:21:10;;;;;;;4.40;0.70;;;;;;;22.71;46.73;99098.77;106453;1271;22531;-88
2022/07/16 08:26:43;;;;;;;5.90;0.70;;;;;;;22.57;46.42;99094.16;106469;1274;25361;-85
2022/07/16 08:29:18;;;;;;;4.40;0.80;;;;;;;22.61;45.64;99092.69;106332;1271;22611;-84
2022/07/16 08:31:51;;;;;;;2.50;0.60;;;;;;;22.86;46.12;99082.80;106255;1271;22556;-86
2022/07/16 08:34:24;;;;;;;4.80;0.60;;;;;;;23.10;45.70;99078.13;106265;1274;22534;-88
2022/07/16 08:36:55;;;;;;;2.70;0.70;;;;;;;23.18;45.68;99071.62;106350;1274;26470;-83
2022/07/16 08:39:22;;;;;;;4.30;0.70;;;;;;;23.16;45.51;99072.39;106389;1274;24300;-84
2022/07/16 08:41:59;;;;;;;4.00;0.70;;;;;;;23.01;44.92;99078.77;106572;1274;24139;-86
2022/07/16 08:44:31;;;;;;;4.80;0.80;;;;;;;22.64;45.08;99084.77;106231;1274;25460;-85
2022/07/16 08:47:02;;;;;;;4.00;0.60;;;;;;;22.53;45.34;99084.55;106451;1274;25329;-86
2022/07/16 08:49:29;;;;;;;2.80;0.60;;;;;;;22.58;45.68;99086.61;106314;1274;22572;-85
2022/07/16 08:52:11;;;;;;;6.30;0.60;;;;;;;22.66;45.63;99080.52;106308;1271;22820;-86
2022/07/16 08:55:35;;;;;;;3.00;0.50;;;;;;;22.62;44.91;99087.17;106658;1274;22552;-90
2022/07/16 08:58:06;;;;;;;4.80;0.80;;;;;;;22.53;44.87;99084.73;106439;1273;22548;-84
2022/07/16 09:00:34;;;;;;;3.30;0.60;;;;;;;22.56;45.00;99088.70;106223;1274;24227;-85
2022/07/16 09:03:03;;;;;;;2.20;0.60;;;;;;;22.61;44.93;99089.36;106464;1271;22567;-83
2022/07/16 09:05:30;;;;;;;3.10;0.50;;;;;;;22.63;44.26;99079.63;106420;1271;22712;-85
2022/07/16 09:07:57;;;;;;;5.30;0.60;;;;;;;22.57;44.33;99085.45;106319;1273;25855;-84
2022/07/16 09:10:37;;;;;;;3.00;0.50;;;;;;;22.58;44.26;99082.24;106204;1277;22810;-84
2022/07/16 09:13:10;;;;;;;7.20;0.70;;;;;;;22.69;44.06;99080.22;106158;1274;24416;-86
2022/07/16 09:15:48;;;;;;;7.50;0.40;;;;;;;22.79;43.75;99076.27;106097;1277;22652;-86
2022/07/16 09:18:23;;;;;;;6.20;0.60;;;;;;;22.74;43.43;99076.27;106184;1274;22541;-89
2022/07/16 09:21:00;;;;;;;6.90;0.90;;;;;;;22.61;43.26;99081.66;106218;1274;22535;-84
2022/07/16 09:23:39;;;;;;;4.90;0.80;;;;;;;22.51;43.88;99083.98;106204;1275;24373;-83
2022/07/16 09:26:11;;;;;;;3.20;0.40;;;;;;;22.52;43.65;99088.58;106438;1274;22528;-83
2022/07/16 09:29:05;;;;;;;5.10;0.80;;;;;;;22.43;43.23;99096.38;106390;1274;22552;-85
2022/07/16 09:31:44;;;;;;;4.00;0.50;;;;;;;22.20;43.08;99089.61;106116;1274;25478;-87
2022/07/16 09:34:15;;;;;;;6.00;0.40;;;;;;;22.01;43.03;99091.30;106345;1274;22594;-89
2022/07/16 09:37:06;;;;;;;2.80;0.60;;;;;;;21.75;41.72;99099.22;106366;1273;24209;-83
2022/07/16 09:39:45;;;;;;;3.70;0.50;;;;;;;21.46;42.27;99106.30;106389;1274;22487;-90
2022/07/16 09:42:36;;;;;;;4.70;0.70;;;;;;;21.24;42.38;99104.30;106419;1274;24268;-87
2022/07/16 09:45:07;;;;;;;3.30;0.50;;;;;;;21.06;42.94;99104.41;106447;1274;24214;-85
2022/07/16 09:47:34;;;;;;;2.80;0.50;;;;;;;21.02;43.11;99097.84;106159;1275;22990;-84
2022/07/16 09:50:05;;;;;;;3.00;0.60;;;;;;;20.97;42.90;99103.29;106440;1274;22618;-86
2022/07/16 09:52:37;;;;;;;3.90;0.60;;;;;;;20.92;42.68;99108.54;107172;1274;22611;-84
2022/07/16 09:55:30;;;;;;;5.70;0.80;;;;;;;20.86;43.11;99112.52;106709;1275;26449;-83
2022/07/16 09:58:03;;;;;;;5.50;0.90;;;;;;;20.91;43.15;99109.27;106112;1277;25493;-86
2022/07/16 10:00:36;;;;;;;5.70;0.70;;;;;;;21.07;43.31;99105.77;106182;1277;24252;-85
2022/07/16 10:03:04;;;;;;;6.50;0.80;;;;;;;21.31;43.46;99102.02;106117;1275;25424;-87
2022/07/16 10:05:35;;;;;;;4.50;0.80;;;;;;;21.53;43.36;99100.05;106108;1277;22566;-87
2022/07/16 10:08:06;;;;;;;3.20;0.70;;;;;;;21.71;42.98;99101.02;106321;1273;24282;-84
2022/07/16 10:10:34;;;;;;;4.50;0.80;;;;;;;21.78;43.25;99098.14;106151;1277;22543;-87
2022/07/16 10:13:04;;;;;;;8.60;0.90;;;;;;;21.79;42.55;99091.42;106229;1277;24237;-85
2022/07/16 10:15:35;;;;;;;2.70;0.60;;;;;;;21.81;42.97;99099.31;106028;1275;25236;-85
2022/07/16 10:18:35;;;;;;;7.90;0.90;;;;;;;21.90;42.88;99098.02;106113;1274;22537;-91
2022/07/16 10:21:19;;;;;;;4.40;0.60;;;;;;;22.08;43.05;99094.63;106290;1274;22551;-84
2022/07/16 10:24:04;;;;;;;5.10;0.80;;;;;;;22.18;43.08;99092.92;106188;1275;22597;-85
2022/07/16 10:26:41;;;;;;;6.70;1.40;;;;;;;22.02;42.75;99097.93;106077;1278;22587;-87
2022/07/16 10:29:13;;;;;;;11.90;1.20;;;;;;;21.67;42.59;99104.07;106123;1277;22659;-85
2022/07/16 10:34:40;;;;;;;5.20;0.80;;;;;;;21.35;42.97;99102.44;106405;1274;22550;-84
2022/07/16 10:37:27;;;;;;;4.80;0.80;;;;;;;21.39;42.59;99108.08;106228;1275;22698;-86
2022/07/16 10:40:04;;;;;;;2.90;0.70;;;;;;;21.35;42.88;99106.16;106119;1274;22556;-87
2022/07/16 10:42:43;;;;;;;3.40;0.80;;;;;;;21.44;42.87;99106.69;106111;1274;25340;-85
2022/07/16 10:45:16;;;;;;;5.00;0.80;;;;;;;21.53;43.17;99108.95;106114;1275;22587;-85
2022/07/16 10:47:49;;;;;;;6.10;0.80;;;;;;;21.50;43.01;99115.66;106212;1274;23606;-88
2022/07/16 10:50:27;;;;;;;4.40;0.90;;;;;;;21.19;42.54;99121.77;106448;1274;22574;-88
2022/07/16 10:56:53;;;;;;;3.30;0.70;;;;;;;20.40;43.52;99142.48;105850;1281;22614;-86
2022/07/16 10:59:40;;;;;;;5.50;0.80;;;;;;;20.33;43.60;99151.73;105707;1281;24279;-86
2022/07/16 11:02:18;;;;;;;6.10;1.10;;;;;;;20.09;43.82;99162.30;106063;1281;22791;-87
2022/07/16 11:05:02;;;;;;;3.40;1.00;;;;;;;19.75;44.40;99160.78;105973;1281;22866;-87
2022/07/16 11:07:40;;;;;;;6.70;1.00;;;;;;;19.28;44.85;99173.03;106532;1281;22638;-85
2022/07/16 11:10:29;;;;;;;6.90;1.00;;;;;;;18.94;45.31;99177.75;105657;1281;25241;-87
2022/07/16 11:13:02;;;;;;;5.70;1.10;;;;;;;18.66;45.63;99176.15;105888;1281;22661;-88
2022/07/16 11:15:44;;;;;;;4.60;1.30;;;;;;;18.58;46.20;99171.41;105847;1281;22565;-85
2022/07/16 11:18:17;;;;;;;4.60;1.10;;;;;;;18.79;46.20;99170.56;105533;1284;22687;-84
2022/07/16 11:20:53;;;;;;;4.10;1.40;;;;;;;19.13;46.23;99173.93;105984;1280;22546;-87
2022/07/16 11:24:09;;;;;;;6.80;1.40;;;;;;;19.32;46.37;99173.79;106050;1278;22582;-87
2022/07/16 11:26:44;;;;;;;6.90;1.40;;;;;;;19.38;46.29;99181.07;105925;1271;22642;-85
2022/07/16 11:29:39;;;;;;;3.10;1.10;;;;;;;19.31;46.05;99178.56;106243;1271;22614;-87
2022/07/16 11:32:27;;;;;;;4.90;1.30;;;;;;;19.03;46.61;99177.19;106665;1274;24010;-85
2022/07/16 11:35:11;;;;;;;6.50;1.50;;;;;;;18.84;47.03;99182.08;106055;1275;22551;-87
2022/07/16 11:38:35;;;;;;;6.90;1.50;;;;;;;18.88;46.90;99178.02;106145;1274;25563;-84
2022/07/16 11:41:34;;;;;;;7.30;1.60;;;;;;;19.04;47.28;99174.96;105657;1281;25193;-85
2022/07/16 11:44:35;;;;;;;8.70;1.70;;;;;;;19.06;47.08;99174.52;105558;1281;24282;-84
2022/07/16 11:47:23;;;;;;;7.60;1.60;;;;;;;19.09;47.11;99172.21;105640;1281;22569;-86
2022/07/16 11:53:38;;;;;;;5.70;1.10;;;;;;;19.46;47.47;99176.96;105786;1281;25410;-87
2022/07/16 11:56:47;;;;;;;4.90;1.30;;;;;;;19.53;47.26;99178.32;105897;1281;22575;-87
2022/07/16 12:02:55;;;;;;;5.70;1.50;;;;;;;19.24;47.59;99191.00;105850;1280;25251;-86
2022/07/16 12:05:31;;;;;;;4.50;1.20;;;;;;;18.96;47.71;99206.11;105695;1278;22737;-86
2022/07/16 12:08:15;;;;;;;;;;;;;;;;;;;;;
2022/07/16 12:12:36;;;;;;;9.70;2.30;;;;;;;18.40;49.32;99238.34;107351;1284;22559;-90
2022/07/16 12:15:27;;;;;;;3.90;1.30;;;;;;;17.80;49.45;99227.14;106652;1287;23142;-92
2022/07/16 12:18:16;;;;;;;3.40;1.10;;;;;;;17.64;49.93;99227.04;106913;1286;22557;-89
2022/07/16 12:20:54;;;;;;;4.40;1.20;;;;;;;17.47;50.14;99226.77;107201;1284;23989;-91
2022/07/16 12:23:54;;;;;;;4.80;1.20;;;;;;;17.29;50.45;99227.36;107216;1284;22566;-91
2022/07/16 12:26:40;;;;;;;5.20;1.30;;;;;;;17.26;50.93;99234.88;106965;1284;22567;-92
2022/07/16 12:29:11;;;;;;;4.80;1.60;;;;;;;17.20;50.91;99242.48;107570;1283;22573;-88
2022/07/16 12:31:41;;;;;;;5.70;1.60;;;;;;;17.16;51.60;99242.88;106452;1282;24237;-89
2022/07/16 12:34:11;;;;;;;7.00;1.70;;;;;;;17.08;52.10;99248.69;106331;1284;22861;-87
2022/07/16 12:36:44;;;;;;;5.70;1.30;;;;;;;17.11;51.71;99238.66;105884;1284;25558;-87
2022/07/16 12:39:27;;;;;;;7.90;2.00;;;;;;;17.37;51.90;99234.94;105367;1287;24266;-89
2022/07/16 12:42:03;;;;;;;5.10;1.60;;;;;;;17.52;51.77;99237.16;105652;1279;22964;-87
2022/07/16 12:44:34;;;;;;;5.00;1.30;;;;;;;17.55;52.08;99238.34;106248;1277;22574;-88
2022/07/16 12:47:01;;;;;;;5.00;1.60;;;;;;;17.57;52.10;99237.45;106299;1280;22636;-90
2022/07/16 12:49:37;;;;;;;5.10;1.90;;;;;;;17.68;52.31;99236.74;106273;1278;22567;-90
2022/07/16 12:52:05;;;;;;;4.40;1.60;;;;;;;17.67;52.47;99242.80;106313;1273;24237;-88
2022/07/16 13:00:14;;;;;;;4.90;1.50;;;;;;;17.34;52.94;99238.45;106391;1274;22559;-91